createdAt,value
2018-12-16T00:02:05.745Z,32.50
2018-12-16T00:04:49.675Z,30.90
2018-12-16T00:07:19.740Z,31.90
2018-12-16T00:09:55.780Z,31.70
2018-12-16T00:12:31.279Z,31.10
2018-12-16T00:15:07.705Z,31.90
2018-12-16T00:17:45.149Z,31.50
2018-12-16T00:20:19.651Z,29.40
2018-12-16T00:22:55.562Z,30.10
2018-12-16T00:25:31.138Z,30.00
2018-12-16T00:28:40.172Z,30.80
2018-12-16T00:31:34.711Z,30.80
2018-12-16T00:34:10.300Z,30.60
2018-12-16T00:36:46.653Z,31.00
2018-12-16T00:39:21.821Z,31.20
2018-12-16T00:41:54.523Z,29.30
2018-12-16T00:44:34.974Z,30.00
2018-12-16T00:47:11.616Z,29.30
2018-12-16T00:49:47.236Z,31.00
2018-12-16T00:52:22.430Z,30.30
2018-12-16T00:55:01.322Z,30.40
2018-12-16T00:57:41.746Z,29.70
2018-12-16T01:00:18.092Z,32.50
2018-12-16T01:02:52.783Z,33.40
2018-12-16T01:05:28.795Z,32.00
2018-12-16T01:08:06.089Z,32.10
2018-12-16T01:10:42.449Z,31.70
2018-12-16T01:13:22.366Z,32.50
2018-12-16T01:15:57.046Z,31.70
2018-12-16T01:18:33.008Z,31.30
2018-12-16T01:21:09.636Z,32.00
2018-12-16T01:23:45.658Z,32.30
2018-12-16T01:26:22.330Z,29.80
2018-12-16T01:28:57.275Z,29.40
2018-12-16T01:31:33.524Z,29.80
2018-12-16T01:34:09.733Z,28.90
2018-12-16T01:36:44.446Z,28.30
2018-12-16T01:39:21.314Z,29.50
2018-12-16T01:41:56.550Z,29.50
2018-12-16T01:44:31.733Z,28.60
2018-12-16T01:47:07.244Z,28.70
2018-12-16T01:49:43.224Z,28.90
2018-12-16T01:52:16.922Z,28.80
2018-12-16T01:54:57.283Z,29.80
2018-12-16T01:57:33.119Z,29.90
2018-12-16T02:00:11.054Z,29.30
2018-12-16T02:02:46.130Z,29.00
2018-12-16T02:05:24.865Z,29.50
2018-12-16T02:08:03.564Z,29.10
2018-12-16T02:10:39.856Z,29.00
2018-12-16T02:13:16.524Z,28.60
2018-12-16T02:15:51.420Z,28.60
2018-12-16T02:18:27.105Z,28.20
2018-12-16T02:21:01.060Z,28.80
2018-12-16T02:23:36.033Z,28.90
2018-12-16T02:26:11.290Z,28.10
2018-12-16T02:28:46.536Z,28.80
2018-12-16T02:31:21.874Z,28.40
2018-12-16T02:33:55.043Z,28.60
2018-12-16T02:36:31.858Z,28.10
2018-12-16T02:39:07.244Z,27.90
2018-12-16T02:41:42.205Z,28.70
2018-12-16T02:44:17.710Z,28.20
2018-12-16T02:46:55.217Z,27.80
2018-12-16T02:49:31.362Z,29.40
2018-12-16T02:52:10.221Z,28.20
2018-12-16T02:54:49.431Z,28.70
2018-12-16T02:57:24.358Z,27.20
2018-12-16T03:00:00.773Z,28.20
2018-12-16T03:02:38.469Z,28.10
2018-12-16T03:05:13.957Z,26.80
2018-12-16T03:10:38.498Z,26.00
2018-12-16T03:13:14.284Z,27.10
2018-12-16T03:15:50.235Z,27.20
2018-12-16T03:18:30.126Z,27.70
2018-12-16T03:21:08.389Z,28.10
2018-12-16T03:23:44.584Z,28.00
2018-12-16T03:26:23.121Z,27.20
2018-12-16T03:28:58.621Z,26.70
2018-12-16T03:31:36.522Z,26.70
2018-12-16T03:34:11.320Z,27.20
2018-12-16T03:36:46.583Z,27.50
2018-12-16T03:39:22.708Z,27.20
2018-12-16T03:41:59.200Z,28.20
2018-12-16T03:44:34.562Z,30.00
2018-12-16T03:47:12.062Z,32.10
2018-12-16T03:49:49.294Z,32.40
2018-12-16T03:52:25.050Z,35.70
2018-12-16T03:55:04.205Z,37.60
2018-12-16T04:00:38.643Z,40.00
2018-12-16T04:03:13.933Z,44.20
2018-12-16T04:05:48.759Z,44.80
2018-12-16T04:08:26.280Z,46.20
2018-12-16T04:11:02.289Z,46.70
2018-12-16T04:13:37.690Z,49.70
2018-12-16T04:16:13.369Z,50.20
2018-12-16T04:18:49.707Z,47.90
2018-12-16T04:21:23.012Z,50.90
2018-12-16T04:24:03.616Z,50.60
2018-12-16T04:26:39.815Z,52.40
2018-12-16T04:29:15.456Z,53.50
2018-12-16T04:31:51.845Z,55.10
2018-12-16T04:34:26.770Z,53.10
2018-12-16T04:37:00.861Z,53.40
2018-12-16T04:39:33.880Z,52.70
2018-12-16T04:42:07.031Z,53.20
2018-12-16T04:44:43.796Z,53.50
2018-12-16T04:47:20.530Z,53.80
2018-12-16T04:49:55.459Z,54.10
2018-12-16T04:52:30.112Z,54.40
2018-12-16T04:55:06.253Z,53.60
2018-12-16T04:57:45.222Z,54.80
2018-12-16T05:00:20.377Z,55.20
2018-12-16T05:02:55.436Z,54.70
2018-12-16T05:05:31.763Z,54.30
2018-12-16T05:08:07.626Z,54.80
2018-12-16T05:10:44.177Z,54.40
2018-12-16T05:13:17.962Z,54.60
2018-12-16T05:15:55.035Z,53.80
2018-12-16T05:18:31.099Z,54.60
2018-12-16T05:21:08.793Z,56.00
2018-12-16T05:23:45.747Z,53.20
2018-12-16T05:26:19.282Z,54.90
2018-12-16T05:28:52.649Z,56.00
2018-12-16T05:31:28.886Z,56.80
2018-12-16T05:34:09.600Z,57.40
2018-12-16T05:36:43.008Z,55.40
2018-12-16T05:39:18.650Z,55.90
2018-12-16T05:41:54.350Z,54.50
2018-12-16T05:44:27.422Z,53.20
2018-12-16T05:47:03.076Z,54.10
2018-12-16T05:49:39.710Z,55.00
2018-12-16T05:52:13.095Z,53.20
2018-12-16T05:54:52.502Z,55.20
2018-12-16T05:57:28.230Z,53.90
2018-12-16T06:00:04.451Z,54.00
2018-12-16T06:02:40.757Z,54.10
2018-12-16T06:05:16.185Z,51.90
2018-12-16T06:07:49.689Z,52.40
2018-12-16T06:10:27.644Z,53.50
2018-12-16T06:13:02.963Z,55.60
2018-12-16T06:15:45.341Z,54.80
2018-12-16T06:18:23.242Z,54.30
2018-12-16T06:20:58.641Z,56.40
2018-12-16T06:23:34.388Z,56.70
2018-12-16T06:26:06.701Z,54.00
2018-12-16T06:28:42.267Z,55.70
2018-12-16T06:31:19.487Z,57.20
2018-12-16T06:33:54.732Z,58.20
2018-12-16T06:36:30.012Z,59.30
2018-12-16T06:39:06.212Z,58.90
2018-12-16T06:41:42.168Z,57.40
2018-12-16T06:44:21.120Z,57.30
2018-12-16T06:46:55.805Z,56.00
2018-12-16T06:49:32.778Z,58.50
2018-12-16T06:52:05.837Z,57.50
2018-12-16T06:54:40.869Z,56.80
2018-12-16T06:57:17.247Z,55.60
2018-12-16T06:59:53.946Z,57.50
2018-12-16T07:02:29.131Z,59.30
2018-12-16T07:05:04.649Z,59.70
2018-12-16T07:07:38.456Z,57.50
2018-12-16T07:10:13.664Z,57.50
2018-12-16T07:12:49.018Z,56.90
2018-12-16T07:17:56.236Z,56.60
2018-12-16T07:20:31.911Z,58.40
2018-12-16T07:23:08.921Z,61.50
2018-12-16T07:25:47.091Z,65.30
2018-12-16T07:28:23.346Z,65.80
2018-12-16T07:33:37.723Z,65.40
2018-12-16T07:36:15.427Z,66.20
2018-12-16T07:38:50.709Z,66.00
2018-12-16T07:41:30.022Z,63.00
2018-12-16T07:46:44.982Z,63.50
2018-12-16T07:49:19.619Z,65.60
2018-12-16T07:51:54.526Z,66.10
2018-12-16T07:54:33.180Z,65.10
2018-12-16T07:57:21.555Z,65.70
2018-12-16T07:59:57.052Z,67.20
2018-12-16T08:02:33.614Z,64.40
2018-12-16T08:05:12.826Z,66.90
2018-12-16T08:10:47.551Z,65.00
2018-12-16T08:13:20.516Z,63.80
2018-12-16T08:15:55.111Z,64.40
2018-12-16T08:18:33.806Z,63.30
2018-12-16T08:21:07.776Z,63.80
2018-12-16T08:23:44.465Z,63.10
2018-12-16T08:26:23.795Z,63.90
2018-12-16T08:29:10.801Z,61.10
2018-12-16T08:31:47.644Z,65.90
2018-12-16T08:34:16.828Z,66.60
2018-12-16T08:36:46.392Z,64.80
2018-12-16T08:39:15.613Z,65.30
2018-12-16T08:41:46.456Z,65.30
2018-12-16T08:44:15.669Z,65.50
2018-12-16T08:46:50.963Z,66.50
2018-12-16T08:52:19.301Z,61.80
2018-12-16T08:54:48.769Z,64.10
2018-12-16T08:57:18.931Z,64.10
2018-12-16T08:59:50.115Z,64.20
2018-12-16T09:02:24.721Z,62.10
2018-12-16T09:04:54.519Z,63.70
2018-12-16T09:07:23.715Z,63.40
2018-12-16T09:10:34.346Z,65.20
2018-12-16T09:13:19.731Z,65.70
2018-12-16T09:16:24.996Z,65.80
2018-12-16T09:19:11.424Z,69.50
2018-12-16T09:21:40.661Z,67.20
2018-12-16T09:24:10.899Z,65.20
2018-12-16T09:26:44.225Z,67.20
2018-12-16T09:29:13.722Z,65.20
2018-12-16T09:31:43.835Z,66.90
2018-12-16T09:34:13.270Z,66.30
2018-12-16T09:36:57.040Z,58.40
2018-12-16T09:42:25.946Z,57.60
2018-12-16T09:44:56.446Z,59.00
2018-12-16T09:47:28.837Z,58.90
2018-12-16T09:50:00.374Z,60.60
2018-12-16T09:52:29.716Z,57.30
2018-12-16T09:55:00.706Z,59.40
2018-12-16T09:57:31.468Z,58.60
2018-12-16T10:00:02.271Z,58.50
2018-12-16T10:02:33.047Z,58.60
2018-12-16T10:05:06.334Z,55.00
2018-12-16T10:07:36.229Z,55.40
2018-12-16T10:10:10.265Z,53.60
2018-12-16T10:12:40.176Z,55.00
2018-12-16T10:15:10.238Z,55.00
2018-12-16T10:17:42.784Z,54.00
2018-12-16T10:20:12.699Z,54.70
2018-12-16T10:22:42.024Z,55.50
2018-12-16T10:25:11.336Z,52.40
2018-12-16T10:27:40.802Z,52.70
2018-12-16T10:30:10.762Z,53.10
2018-12-16T10:32:40.374Z,53.40
2018-12-16T10:35:09.622Z,52.30
2018-12-16T10:37:39.807Z,52.60
2018-12-16T10:40:10.672Z,54.20
2018-12-16T10:42:39.918Z,55.90
2018-12-16T10:45:10.295Z,57.20
2018-12-16T10:47:39.992Z,58.80
2018-12-16T10:50:09.577Z,61.90
2018-12-16T10:52:40.173Z,62.20
2018-12-16T10:55:11.361Z,60.10
2018-12-16T10:57:40.702Z,61.90
2018-12-16T11:00:17.251Z,61.30
2018-12-16T11:02:46.469Z,61.20
2018-12-16T11:05:17.770Z,60.20
2018-12-16T11:07:48.511Z,61.00
2018-12-16T11:10:19.112Z,60.10
2018-12-16T11:12:48.834Z,60.80
2018-12-16T11:15:18.966Z,62.30
2018-12-16T11:17:50.403Z,61.50
2018-12-16T11:20:21.940Z,62.40
2018-12-16T11:22:51.221Z,63.70
2018-12-16T11:25:21.774Z,66.40
2018-12-16T11:27:53.577Z,69.70
2018-12-16T11:30:27.183Z,69.40
2018-12-16T11:33:10.988Z,68.90
2018-12-16T11:35:47.858Z,68.90
2018-12-16T11:38:18.670Z,69.10
2018-12-16T11:40:53.984Z,67.30
2018-12-16T11:43:25.567Z,65.00
2018-12-16T11:45:57.417Z,65.80
2018-12-16T11:48:57.014Z,64.20
2018-12-16T11:51:35.486Z,63.70
2018-12-16T11:54:15.276Z,65.20
2018-12-16T11:56:47.624Z,65.90
2018-12-16T11:59:25.020Z,66.20
2018-12-16T12:01:55.074Z,66.30
2018-12-16T12:04:24.995Z,65.00
2018-12-16T12:06:57.234Z,66.00
2018-12-16T12:09:26.704Z,67.30
2018-12-16T12:12:00.806Z,67.20
2018-12-16T12:14:34.461Z,67.00
2018-12-16T12:17:07.559Z,66.40
2018-12-16T12:19:45.411Z,64.20
2018-12-16T12:22:27.891Z,63.30
2018-12-16T12:24:59.136Z,64.40
2018-12-16T12:27:28.900Z,67.00
2018-12-16T12:29:58.979Z,68.20
2018-12-16T12:32:31.785Z,65.30
2018-12-16T12:35:10.342Z,64.20
2018-12-16T12:37:47.407Z,61.40
2018-12-16T12:40:18.228Z,61.50
2018-12-16T12:42:51.123Z,55.80
2018-12-16T12:45:25.017Z,56.20
2018-12-16T12:47:55.301Z,54.20
2018-12-16T12:50:34.925Z,52.70
2018-12-16T12:56:09.310Z,54.70
2018-12-16T12:58:55.792Z,56.00
2018-12-16T13:01:30.807Z,56.70
2018-12-16T13:04:07.116Z,55.70
2018-12-16T13:06:39.564Z,58.30
2018-12-16T13:09:12.797Z,59.50
2018-12-16T13:11:49.970Z,61.50
2018-12-16T13:14:22.581Z,59.50
2018-12-16T13:17:02.715Z,60.90
2018-12-16T13:19:40.015Z,61.00
2018-12-16T13:22:15.065Z,62.50
2018-12-16T13:24:58.123Z,62.90
2018-12-16T13:27:27.334Z,63.80
2018-12-16T13:29:56.787Z,63.70
2018-12-16T13:32:27.719Z,61.80
2018-12-16T13:34:59.753Z,61.40
2018-12-16T13:37:30.134Z,62.50
2018-12-16T13:40:00.221Z,62.90
2018-12-16T13:42:29.439Z,63.10
2018-12-16T13:45:01.249Z,63.30
2018-12-16T13:47:33.151Z,61.90
2018-12-16T13:50:02.722Z,61.80
2018-12-16T13:52:32.933Z,60.60
2018-12-16T13:55:05.839Z,60.70
2018-12-16T13:57:38.362Z,58.50
2018-12-16T14:00:13.800Z,61.00
2018-12-16T14:02:50.001Z,57.70
2018-12-16T14:05:20.618Z,55.40
2018-12-16T14:07:52.690Z,53.80
2018-12-16T14:10:24.507Z,55.80
2018-12-16T14:12:53.757Z,55.90
2018-12-16T14:15:25.285Z,55.90
2018-12-16T14:17:55.129Z,56.30
2018-12-16T14:20:28.105Z,56.40
2018-12-16T14:23:09.439Z,55.20
2018-12-16T14:25:39.007Z,54.10
2018-12-16T14:28:08.532Z,55.20
2018-12-16T14:30:39.319Z,56.50
2018-12-16T14:33:10.146Z,53.90
2018-12-16T14:35:41.280Z,55.20
2018-12-16T14:38:11.257Z,53.60
2018-12-16T14:40:42.383Z,54.00
2018-12-16T14:43:13.599Z,54.60
2018-12-16T14:45:43.200Z,56.10
2018-12-16T14:48:14.522Z,59.10
2018-12-16T14:50:44.142Z,59.70
2018-12-16T14:53:13.950Z,60.20
2018-12-16T14:55:45.342Z,61.20
2018-12-16T14:58:14.656Z,62.70
2018-12-16T15:00:44.678Z,63.20
2018-12-16T15:03:15.783Z,63.50
2018-12-16T15:05:45.083Z,66.10
2018-12-16T15:08:14.310Z,67.70
2018-12-16T15:10:44.572Z,69.30
2018-12-16T15:13:16.928Z,69.90
2018-12-16T15:15:46.883Z,72.60
2018-12-16T15:18:18.294Z,73.10
2018-12-16T15:20:50.075Z,76.80
2018-12-16T15:23:21.300Z,77.10
2018-12-16T15:26:02.003Z,79.40
2018-12-16T15:28:29.115Z,80.80
2018-12-16T15:31:00.366Z,82.50
2018-12-16T15:33:32.723Z,83.30
2018-12-16T15:36:03.369Z,84.10
2018-12-16T15:38:32.645Z,84.90
2018-12-16T15:41:12.778Z,84.60
2018-12-16T15:43:58.502Z,87.00
2018-12-16T15:46:28.443Z,84.90
2018-12-16T15:48:59.967Z,88.30
2018-12-16T15:51:30.430Z,90.00
2018-12-16T15:54:01.418Z,90.10
2018-12-16T15:56:35.243Z,90.60
2018-12-16T15:59:04.931Z,91.80
2018-12-16T16:01:34.279Z,91.90
2018-12-16T16:04:03.814Z,86.40
2018-12-16T16:06:33.332Z,85.80
2018-12-16T16:09:03.068Z,90.00
2018-12-16T16:11:33.240Z,91.70
2018-12-16T16:14:03.750Z,93.20
2018-12-16T16:16:33.115Z,93.50
2018-12-16T16:19:05.319Z,91.90
2018-12-16T16:21:36.872Z,87.90
2018-12-16T16:24:13.334Z,86.70
2018-12-16T16:26:42.616Z,90.00
2018-12-16T16:29:19.325Z,90.00
2018-12-16T16:34:35.339Z,90.40
2018-12-16T16:37:04.623Z,92.50
2018-12-16T16:39:34.923Z,92.40
2018-12-16T16:42:04.833Z,93.00
2018-12-16T16:44:34.243Z,93.10
2018-12-16T16:47:05.746Z,93.00
2018-12-16T16:49:36.142Z,91.30
2018-12-16T16:52:05.564Z,92.40
2018-12-16T16:54:41.493Z,93.00
2018-12-16T16:57:13.511Z,93.10
2018-12-16T17:03:18.503Z,91.40
2018-12-16T17:05:47.811Z,92.20
2018-12-16T17:08:31.785Z,92.60
2018-12-16T17:11:10.601Z,92.70
2018-12-16T17:13:55.290Z,91.90
2018-12-16T17:19:15.397Z,81.40
2018-12-16T17:21:45.195Z,83.80
2018-12-16T17:24:17.477Z,87.50
2018-12-16T17:27:31.923Z,91.20
2018-12-16T17:35:57.155Z,90.60
2018-12-16T17:38:36.988Z,90.40
2018-12-16T17:41:28.060Z,90.30
2018-12-16T17:44:08.053Z,90.70
2018-12-16T17:46:41.798Z,89.50
2018-12-16T17:49:21.181Z,89.10
2018-12-16T17:51:52.791Z,88.80
2018-12-16T17:54:33.869Z,90.40
2018-12-16T17:57:06.469Z,88.20
2018-12-16T18:00:01.178Z,90.80
2018-12-16T18:02:33.677Z,90.30
2018-12-16T18:05:06.357Z,90.30
2018-12-16T18:07:38.276Z,90.00
2018-12-16T18:10:09.368Z,91.10
2018-12-16T18:12:39.229Z,91.90
2018-12-16T18:15:09.171Z,93.70
2018-12-16T18:17:48.158Z,94.10
2018-12-16T18:20:34.246Z,94.80
2018-12-16T18:23:10.742Z,94.90
2018-12-16T18:25:42.654Z,92.80
2018-12-16T18:28:31.732Z,93.20
2018-12-16T18:34:15.426Z,94.40
2018-12-16T18:36:45.063Z,93.50
2018-12-16T18:39:17.754Z,93.70
2018-12-16T18:45:11.862Z,90.00
2018-12-16T18:47:43.623Z,91.70
2018-12-16T18:50:33.667Z,92.90
2018-12-16T18:55:53.883Z,95.70
2018-12-16T18:58:54.245Z,96.80
2018-12-16T19:03:54.625Z,94.40
2018-12-16T19:06:27.109Z,92.50
2018-12-16T19:08:56.381Z,93.20
2018-12-16T19:11:26.955Z,91.50
2018-12-16T19:13:56.341Z,93.40
2018-12-16T19:16:25.864Z,94.10
2018-12-16T19:18:56.469Z,94.50
2018-12-16T19:21:25.856Z,92.30
2018-12-16T19:23:56.041Z,92.20
2018-12-16T19:26:25.627Z,92.60
2018-12-16T19:28:54.976Z,93.10
2018-12-16T19:31:24.946Z,93.20
2018-12-16T19:33:55.636Z,93.30
2018-12-16T19:36:25.409Z,91.00
2018-12-16T19:38:55.151Z,90.10
2018-12-16T19:41:24.625Z,91.30
2018-12-16T19:43:54.682Z,91.50
2018-12-16T19:46:24.036Z,92.20
2018-12-16T19:48:54.009Z,91.50
2018-12-16T19:51:24.691Z,91.60
2018-12-16T19:53:53.954Z,90.20
2018-12-16T19:56:23.598Z,86.60
2018-12-16T19:58:53.348Z,85.70
2018-12-16T20:01:24.268Z,84.20
2018-12-16T20:11:42.401Z,86.10
2018-12-16T20:17:34.534Z,85.30
2018-12-16T20:20:27.071Z,86.50
2018-12-16T20:23:07.323Z,85.40
2018-12-16T20:25:37.074Z,86.50
2018-12-16T20:31:37.413Z,85.20
2018-12-16T20:43:08.923Z,86.40
2018-12-16T20:45:49.102Z,85.10
2018-12-16T20:48:34.625Z,85.60
2018-12-16T20:51:22.855Z,88.80
2018-12-16T20:53:58.319Z,88.60
2018-12-16T20:56:28.900Z,89.20
2018-12-16T21:02:08.384Z,91.10
2018-12-16T21:04:37.803Z,91.40
2018-12-16T21:07:31.167Z,91.30
2018-12-16T21:16:04.315Z,93.00
2018-12-16T21:18:38.297Z,91.40
2018-12-16T21:21:19.938Z,91.60
2018-12-16T21:23:59.779Z,91.20
2018-12-16T21:26:39.014Z,90.80
2018-12-16T21:29:17.628Z,90.60
2018-12-16T21:34:56.606Z,91.90
2018-12-16T21:40:41.981Z,95.70
2018-12-16T21:43:12.933Z,96.00
2018-12-16T21:51:42.506Z,95.30
2018-12-16T21:57:10.857Z,94.90
2018-12-16T21:59:42.409Z,94.50
2018-12-16T22:02:11.697Z,94.30
2018-12-16T22:04:45.324Z,94.80
2018-12-16T22:07:15.022Z,95.10
2018-12-16T22:09:44.490Z,93.80
2018-12-16T22:12:14.501Z,93.90
2018-12-16T22:14:45.202Z,93.70
2018-12-16T22:17:14.988Z,92.70
2018-12-16T22:19:46.267Z,92.20
2018-12-16T22:22:18.938Z,93.50
2018-12-16T22:24:50.446Z,94.60
2018-12-16T22:27:19.744Z,95.20
2018-12-16T22:30:01.125Z,95.90
2018-12-16T22:32:37.875Z,96.70
2018-12-16T22:35:13.028Z,97.40
2018-12-16T22:40:52.626Z,98.10
2018-12-16T22:43:28.293Z,98.00
2018-12-16T22:45:59.524Z,97.80
2018-12-16T22:51:32.022Z,97.30
2018-12-16T22:54:02.683Z,96.80
2018-12-16T22:56:32.603Z,96.20
2018-12-16T22:59:02.788Z,96.40
2018-12-16T23:01:32.050Z,94.60
2018-12-16T23:07:05.724Z,94.00
2018-12-16T23:12:41.503Z,95.30
2018-12-16T23:15:28.544Z,97.50
2018-12-16T23:18:00.067Z,97.60
2018-12-16T23:23:28.632Z,97.70
2018-12-16T23:26:00.231Z,97.90
2018-12-16T23:28:30.445Z,97.10
2018-12-16T23:30:59.835Z,96.60
2018-12-16T23:33:29.060Z,95.80
2018-12-16T23:35:58.295Z,94.20
2018-12-16T23:38:27.599Z,93.40
2018-12-16T23:40:59.597Z,93.70
2018-12-16T23:43:28.837Z,94.10
2018-12-16T23:45:59.134Z,93.70
2018-12-16T23:48:28.364Z,93.80
2018-12-16T23:51:10.105Z,94.30
2018-12-16T23:53:51.447Z,94.60
2018-12-16T23:59:28.910Z,95.30
